Terminal Aerodrome Forecast
Issued by NWS

Home | Current Version | Previous Version | Text Only | Print | Product List | Glossary On
Versions: 1 2 3 4 5 6 7 8 9 10 11 12 13 14 15 16 17
055
FTUS44 KTSA 232320
TAFXNA
TAF
KXNA 232320Z 2400/2424 17006KT P6SM -RA BKN005
      TEMPO 2400/2404 2SM -RA BR BKN003
     FM240400 10007KT 3SM -RA BR VCTS OVC005CB
     FM241600 16006KT 3SM -RA VCTS BKN005CB
      TEMPO 2420/2424 VRB15G25KT 2SM -TSRA BR BKN015CB=

USA.gov is the U.S. government's official web portal to all federal, state and local government web resources and services.